Time;durP1;ratioP1;P1;durP2;ratioP2;P2;SDS_P1;SDS_P2;PMS_P1;PMS_P2;Temp;Humidity;BMP_temperature;BMP_pressure;BME280_temperature;BME280_humidity;BME280_pressure;Samples;Min_cycle;Max_cycle;Signal;HPM_P1;HPM_P2
2020/12/02 00:01:18;;;;;;;60.80;27.33;;;6.90;90.50;;;;;;8358433;28;21109;-76
2020/12/02 00:05:20;;;;;;;63.80;25.97;;;6.90;90.50;;;;;;8375302;28;20445;-76
2020/12/02 00:09:23;;;;;;;63.23;27.90;;;6.90;90.50;;;;;;8393673;28;20451;-77
2020/12/02 00:13:29;;;;;;;50.77;25.57;;;7.00;90.60;;;;;;8362258;28;20445;-77
2020/12/02 00:17:31;;;;;;;52.13;26.70;;;7.00;90.50;;;;;;8376984;28;20836;-77
2020/12/02 00:21:58;;;;;;;49.10;24.00;;;7.00;90.30;;;;;;8392576;28;21150;-77
2020/12/02 00:25:58;;;;;;;40.60;22.40;;;7.00;90.20;;;;;;8363177;28;20515;-77
2020/12/02 00:30:07;;;;;;;57.27;25.73;;;6.90;90.10;;;;;;8369081;28;20445;-77
2020/12/02 00:34:11;;;;;;;58.47;26.33;;;6.90;90.10;;;;;;8355253;28;20218;-77
2020/12/02 00:38:13;;;;;;;56.07;23.63;;;6.90;90.20;;;;;;8375933;28;20528;-77
2020/12/02 00:42:15;;;;;;;57.77;28.07;;;6.90;90.20;;;;;;8380291;28;20452;-77
2020/12/02 00:46:23;;;;;;;52.60;27.20;;;6.90;90.30;;;;;;8373964;28;20437;-77
2020/12/02 00:50:24;;;;;;;51.50;25.10;;;6.90;90.20;;;;;;8370513;28;20830;-77
2020/12/02 00:54:32;;;;;;;54.87;26.00;;;6.80;90.20;;;;;;8372506;28;20448;-77
2020/12/02 00:58:50;;;;;;;50.63;24.47;;;6.80;90.10;;;;;;8372984;28;20527;-77
2020/12/02 01:03:00;;;;;;;44.63;21.93;;;6.80;90.20;;;;;;8378844;28;20453;-77
2020/12/02 01:07:02;;;;;;;41.47;21.57;;;6.70;90.00;;;;;;8369646;28;20944;-77
2020/12/02 01:11:20;;;;;;;45.77;23.77;;;6.70;89.90;;;;;;8372186;28;20971;-77
2020/12/02 01:15:27;;;;;;;42.83;21.60;;;6.70;89.90;;;;;;8375901;28;20445;-77
2020/12/02 01:19:35;;;;;;;34.70;20.13;;;6.70;89.70;;;;;;8380147;28;20472;-77
2020/12/02 01:23:37;;;;;;;40.53;21.80;;;6.60;89.50;;;;;;8377189;28;20450;-77
2020/12/02 01:27:56;;;;;;;46.70;22.97;;;6.60;89.50;;;;;;8376461;28;20478;-77
2020/12/02 01:32:05;;;;;;;43.33;22.17;;;6.60;89.70;;;;;;8392496;28;20441;-77
2020/12/02 01:36:11;;;;;;;52.73;22.60;;;6.60;89.70;;;;;;8390873;28;20447;-77
2020/12/02 01:40:24;;;;;;;45.47;20.93;;;6.60;89.80;;;;;;8371425;28;20930;-77
2020/12/02 01:44:29;;;;;;;54.83;22.63;;;6.60;89.60;;;;;;8377873;28;20565;-77
2020/12/02 01:48:47;;;;;;;44.20;22.13;;;6.60;89.50;;;;;;8414443;28;21007;-77
2020/12/02 01:53:07;;;;;;;39.07;19.30;;;6.60;89.60;;;;;;8385227;28;20492;-77
2020/12/02 01:57:24;;;;;;;37.43;21.37;;;6.50;89.40;;;;;;8393586;28;20431;-76
2020/12/02 02:01:42;;;;;;;37.60;20.40;;;6.50;89.50;;;;;;8373352;28;20620;-76
2020/12/02 02:06:05;;;;;;;44.90;21.07;;;6.50;89.50;;;;;;8383261;28;20534;-76
2020/12/02 02:10:19;;;;;;;44.57;21.70;;;6.50;89.50;;;;;;8386911;28;20541;-76
2020/12/02 02:14:35;;;;;;;39.47;20.37;;;6.50;89.50;;;;;;8393729;28;20452;-76
2020/12/02 02:18:40;;;;;;;35.73;19.40;;;6.40;89.40;;;;;;8377857;28;20518;-76
2020/12/02 02:22:46;;;;;;;37.57;19.20;;;6.40;89.50;;;;;;8376561;28;20454;-76
2020/12/02 02:26:57;;;;;;;30.77;16.60;;;6.40;89.30;;;;;;8377269;28;20471;-76
2020/12/02 02:30:58;;;;;;;32.23;18.47;;;6.40;89.20;;;;;;8375834;28;20443;-76
2020/12/02 02:35:07;;;;;;;35.13;16.87;;;6.40;89.30;;;;;;8389371;28;20526;-76
2020/12/02 02:39:12;;;;;;;41.57;21.10;;;6.40;89.30;;;;;;8390905;28;20210;-76
2020/12/02 02:43:17;;;;;;;43.97;19.40;;;6.40;89.20;;;;;;8380341;28;20441;-76
2020/12/02 02:47:21;;;;;;;32.13;18.37;;;6.40;89.30;;;;;;8368515;28;20771;-77
2020/12/02 02:51:24;;;;;;;33.97;17.97;;;6.40;89.30;;;;;;8380508;28;21102;-76
2020/12/02 02:55:28;;;;;;;35.23;18.17;;;6.40;89.20;;;;;;8375741;28;20948;-76
2020/12/02 02:59:35;;;;;;;34.37;18.63;;;6.40;89.40;;;;;;8369505;28;20470;-76
2020/12/02 03:03:42;;;;;;;34.77;18.37;;;6.40;89.40;;;;;;8374995;28;20951;-76
2020/12/02 03:07:50;;;;;;;42.60;21.93;;;6.40;89.60;;;;;;8377672;28;20448;-76
2020/12/02 03:11:57;;;;;;;35.13;18.77;;;6.40;89.60;;;;;;8389198;28;20448;-76
2020/12/02 03:16:10;;;;;;;42.03;22.43;;;6.50;89.50;;;;;;8377858;28;20471;-76
2020/12/02 03:20:19;;;;;;;31.10;16.07;;;6.50;89.40;;;;;;8373757;28;20527;-75
2020/12/02 03:24:20;;;;;;;41.60;20.20;;;6.50;89.30;;;;;;8367980;28;20507;-76
2020/12/02 03:28:28;;;;;;;35.50;19.87;;;6.50;89.10;;;;;;8361503;28;20457;-76
2020/12/02 03:32:33;;;;;;;47.30;21.97;;;6.50;89.00;;;;;;8375543;28;20189;-76
2020/12/02 03:36:40;;;;;;;30.90;18.80;;;6.40;88.90;;;;;;8392739;28;20444;-76
2020/12/02 03:40:47;;;;;;;34.00;19.57;;;6.40;88.90;;;;;;8372912;28;20484;-76
2020/12/02 03:44:48;;;;;;;43.37;21.03;;;6.30;88.80;;;;;;8373940;28;20447;-76
2020/12/02 03:48:49;;;;;;;45.60;22.77;;;6.30;88.70;;;;;;8371640;28;20475;-76
2020/12/02 03:53:03;;;;;;;41.23;21.97;;;6.20;88.80;;;;;;8356107;28;20452;-76
2020/12/02 03:57:06;;;;;;;46.97;23.30;;;6.10;88.90;;;;;;8376623;28;20509;-75
2020/12/02 04:01:13;;;;;;;40.70;20.27;;;6.00;89.30;;;;;;8374888;28;20482;-76
2020/12/02 04:05:23;;;;;;;43.40;21.57;;;5.90;89.80;;;;;;8377203;28;20961;-76
2020/12/02 04:09:26;;;;;;;58.27;26.83;;;5.90;90.00;;;;;;8397804;28;20455;-76
2020/12/02 04:13:32;;;;;;;82.13;33.27;;;5.90;90.10;;;;;;8386795;28;20513;-76
2020/12/02 04:17:35;;;;;;;69.67;34.13;;;5.90;90.10;;;;;;8371204;28;20497;-76
2020/12/02 04:21:36;;;;;;;181.70;74.57;;;5.90;90.10;;;;;;8369720;28;20443;-76
2020/12/02 04:25:45;;;;;;;60.93;30.77;;;6.00;90.10;;;;;;8372223;28;20488;-76
2020/12/02 04:29:46;;;;;;;46.10;23.50;;;6.00;90.00;;;;;;8374857;28;20229;-76
2020/12/02 04:33:47;;;;;;;38.93;21.17;;;6.00;90.00;;;;;;8388916;28;20455;-76
2020/12/02 04:37:48;;;;;;;37.57;21.83;;;6.00;89.80;;;;;;8374039;28;20800;-76
2020/12/02 04:41:51;;;;;;;40.00;18.03;;;6.00;89.70;;;;;;8371007;28;20516;-76
2020/12/02 04:46:14;;;;;;;36.43;22.07;;;6.00;89.50;;;;;;8382217;28;20927;-76
2020/12/02 04:50:27;;;;;;;39.97;18.67;;;6.10;89.30;;;;;;8376965;28;20534;-76
2020/12/02 04:54:31;;;;;;;38.70;23.17;;;6.00;89.20;;;;;;8371628;28;20868;-76
2020/12/02 04:58:35;;;;;;;37.43;20.70;;;6.10;89.30;;;;;;8387829;28;20974;-77
2020/12/02 05:02:35;;;;;;;38.10;18.70;;;6.10;89.10;;;;;;8409527;28;20444;-76
2020/12/02 05:06:49;;;;;;;35.93;19.17;;;6.10;89.00;;;;;;8394457;28;20449;-76
2020/12/02 05:10:52;;;;;;;64.63;29.30;;;6.10;88.90;;;;;;8374184;28;20195;-76
2020/12/02 05:15:09;;;;;;;33.57;18.50;;;6.10;88.60;;;;;;8379484;28;20441;-77
2020/12/02 05:19:19;;;;;;;48.97;23.60;;;6.10;88.90;;;;;;8371600;28;20471;-75
2020/12/02 05:23:22;;;;;;;35.77;19.07;;;6.10;88.90;;;;;;8374343;28;20457;-75
2020/12/02 05:27:30;;;;;;;37.10;19.37;;;6.10;88.80;;;;;;8374828;28;20462;-76
2020/12/02 05:31:34;;;;;;;31.10;19.00;;;6.20;88.70;;;;;;8366371;28;20491;-75
2020/12/02 05:35:50;;;;;;;31.07;18.67;;;6.20;88.50;;;;;;8355457;28;20440;-76
2020/12/02 05:40:02;;;;;;;29.47;18.80;;;6.20;88.50;;;;;;8398285;28;20464;-77
2020/12/02 05:44:30;;;;;;;31.43;19.30;;;6.20;88.50;;;;;;8377544;28;20513;-76
2020/12/02 05:48:36;;;;;;;29.07;17.20;;;6.20;88.40;;;;;;8380267;28;20447;-76
2020/12/02 05:52:44;;;;;;;34.93;19.63;;;6.20;88.50;;;;;;8382433;28;20495;-77
2020/12/02 05:56:46;;;;;;;47.63;26.43;;;6.20;88.50;;;;;;8374565;28;20482;-76
2020/12/02 06:00:47;;;;;;;33.00;20.17;;;6.20;88.50;;;;;;8380407;28;21446;-77
2020/12/02 06:04:53;;;;;;;32.60;19.67;;;6.20;88.50;;;;;;8411654;28;21023;-75
2020/12/02 06:09:02;;;;;;;40.97;21.63;;;6.20;88.00;;;;;;8375541;28;20448;-75
2020/12/02 06:13:07;;;;;;;27.07;17.73;;;6.20;87.90;;;;;;8378250;28;20440;-76
2020/12/02 06:17:30;;;;;;;30.48;18.90;;;6.20;87.60;;;;;;8391156;28;20500;-76
2020/12/02 06:21:49;;;;;;;34.87;21.53;;;6.20;87.60;;;;;;8369907;28;20221;-76
2020/12/02 06:25:53;;;;;;;37.47;20.67;;;6.20;86.80;;;;;;8375486;28;20938;-76
2020/12/02 06:30:08;;;;;;;38.47;22.53;;;6.10;86.70;;;;;;8380496;28;20444;-76
2020/12/02 06:34:22;;;;;;;35.77;21.00;;;6.10;87.00;;;;;;8390806;28;20444;-76
2020/12/02 06:38:34;;;;;;;43.40;22.87;;;6.00;87.20;;;;;;8392748;28;20456;-76
2020/12/02 06:42:41;;;;;;;33.90;19.60;;;6.00;88.10;;;;;;8368374;28;20563;-77
2020/12/02 06:47:06;;;;;;;42.83;25.17;;;6.00;87.90;;;;;;8383207;28;20523;-76
2020/12/02 06:51:15;;;;;;;47.70;24.60;;;5.90;88.30;;;;;;8384031;28;20975;-76
2020/12/02 06:55:25;;;;;;;34.13;20.77;;;5.90;88.30;;;;;;8394939;28;20431;-76
2020/12/02 06:59:47;;;;;;;38.67;21.27;;;5.90;88.40;;;;;;8400403;28;20544;-76
2020/12/02 07:03:48;;;;;;;31.03;17.67;;;5.90;88.70;;;;;;8381062;28;20440;-76
2020/12/02 07:07:49;;;;;;;41.03;23.60;;;5.90;88.70;;;;;;8379557;28;20538;-76
2020/12/02 07:12:06;;;;;;;38.83;19.60;;;5.90;88.90;;;;;;8359014;28;20448;-76
2020/12/02 07:16:28;;;;;;;35.77;21.37;;;5.90;89.10;;;;;;8377968;28;20442;-75
2020/12/02 07:20:35;;;;;;;42.17;25.03;;;5.90;89.20;;;;;;8374251;28;20471;-76
2020/12/02 07:24:40;;;;;;;38.13;20.97;;;5.90;89.40;;;;;;8377079;28;21112;-76
2020/12/02 07:28:44;;;;;;;54.67;24.97;;;6.00;89.30;;;;;;8375856;28;20543;-76
2020/12/02 07:32:50;;;;;;;36.90;23.77;;;6.00;89.30;;;;;;8379145;28;20480;-76
2020/12/02 07:36:58;;;;;;;35.87;22.37;;;5.90;89.20;;;;;;8376054;28;20448;-76
2020/12/02 07:41:18;;;;;;;48.07;22.30;;;6.00;89.40;;;;;;8383556;28;20471;-76
2020/12/02 07:45:25;;;;;;;43.00;23.70;;;6.00;89.30;;;;;;8369532;28;20483;-76
2020/12/02 07:49:34;;;;;;;37.13;20.67;;;6.00;89.50;;;;;;8396131;28;20491;-76
2020/12/02 07:53:55;;;;;;;35.87;18.13;;;6.00;89.50;;;;;;8374682;28;20444;-77
2020/12/02 07:58:05;;;;;;;39.10;19.77;;;6.00;89.40;;;;;;8401096;28;20463;-76
2020/12/02 08:02:13;;;;;;;34.80;21.20;;;6.00;89.50;;;;;;8372824;28;20443;-77
2020/12/02 08:06:41;;;;;;;35.03;21.27;;;6.10;89.40;;;;;;8363692;28;20443;-76
2020/12/02 08:10:46;;;;;;;29.07;18.17;;;6.20;89.00;;;;;;8341918;28;20502;-76
2020/12/02 08:14:49;;;;;;;28.90;17.97;;;6.30;88.70;;;;;;8370863;28;20473;-76
2020/12/02 08:18:52;;;;;;;34.03;20.13;;;6.30;87.70;;;;;;8374112;28;20984;-76
2020/12/02 08:22:54;;;;;;;30.50;16.43;;;6.30;87.60;;;;;;8378081;28;20436;-76
2020/12/02 08:26:55;;;;;;;25.03;17.20;;;6.30;87.30;;;;;;8374024;28;20549;-76
2020/12/02 08:31:06;;;;;;;30.00;16.90;;;6.30;87.30;;;;;;8374437;28;20462;-76
2020/12/02 08:35:28;;;;;;;28.67;17.93;;;6.30;86.80;;;;;;8373262;28;20518;-76
2020/12/02 08:39:31;;;;;;;29.80;16.80;;;6.30;86.40;;;;;;8373692;28;20471;-76
2020/12/02 08:43:46;;;;;;;30.13;18.87;;;6.30;86.20;;;;;;8377632;28;20483;-76
2020/12/02 08:47:54;;;;;;;29.83;17.50;;;6.30;86.20;;;;;;8373594;28;20965;-77
2020/12/02 08:51:55;;;;;;;34.60;18.03;;;6.40;85.80;;;;;;8374066;28;20436;-76
2020/12/02 08:55:57;;;;;;;32.47;17.93;;;6.40;86.00;;;;;;8377848;28;20521;-75
2020/12/02 08:59:58;;;;;;;35.70;18.97;;;6.40;85.90;;;;;;8373590;28;20478;-76
2020/12/02 09:04:01;;;;;;;29.50;18.77;;;6.40;85.80;;;;;;8392078;28;20453;-75
2020/12/02 09:08:07;;;;;;;34.77;19.10;;;6.50;85.40;;;;;;8391400;28;20716;-75
2020/12/02 09:12:08;;;;;;;27.87;16.43;;;6.50;85.40;;;;;;8358682;28;20454;-75
2020/12/02 09:16:09;;;;;;;33.83;19.73;;;6.50;85.40;;;;;;8384552;28;20436;-76
2020/12/02 09:20:10;;;;;;;28.83;17.50;;;6.60;85.30;;;;;;8380810;28;20480;-76
2020/12/02 09:24:16;;;;;;;37.23;19.87;;;6.70;85.00;;;;;;8385479;28;20220;-76
2020/12/02 09:28:21;;;;;;;24.40;16.23;;;6.80;84.90;;;;;;8397597;28;20800;-75
2020/12/02 09:32:22;;;;;;;28.30;18.03;;;6.90;84.30;;;;;;8366611;28;20975;-75
2020/12/02 09:36:26;;;;;;;24.10;16.47;;;7.00;84.00;;;;;;8363936;28;20974;-76
2020/12/02 09:40:27;;;;;;;34.17;17.57;;;7.00;83.80;;;;;;8383801;28;20240;-77
2020/12/02 09:44:47;;;;;;;36.93;20.50;;;7.00;83.20;;;;;;8346378;28;20460;-76
2020/12/02 09:48:49;;;;;;;31.37;16.93;;;7.00;83.50;;;;;;8373039;28;20483;-76
2020/12/02 09:52:53;;;;;;;30.47;18.90;;;7.00;83.60;;;;;;8387479;28;20433;-75
2020/12/02 09:56:55;;;;;;;30.30;16.80;;;7.10;83.30;;;;;;8377954;28;20460;-75
2020/12/02 10:01:02;;;;;;;23.00;14.70;;;7.20;83.50;;;;;;8382096;28;20564;-76
2020/12/02 10:05:06;;;;;;;24.93;14.87;;;7.80;83.20;;;;;;8383122;28;20490;-76
2020/12/02 10:09:45;;;;;;;18.30;12.77;;;8.50;79.20;;;;;;8409563;28;20441;-76
2020/12/02 10:14:12;;;;;;;22.10;14.63;;;8.80;78.30;;;;;;8400775;28;20492;-75
2020/12/02 10:18:38;;;;;;;21.03;14.00;;;8.90;76.00;;;;;;8387462;28;20465;-76
2020/12/02 10:22:55;;;;;;;21.23;15.07;;;8.80;76.20;;;;;;8378429;28;20744;-76
2020/12/02 10:27:24;;;;;;;18.77;15.00;;;8.60;76.20;;;;;;8379835;28;20554;-73
2020/12/02 10:31:49;;;;;;;21.63;13.83;;;8.60;77.30;;;;;;8380232;28;20459;-73
2020/12/02 10:35:50;;;;;;;23.97;15.57;;;8.70;75.90;;;;;;8373610;28;20459;-73
2020/12/02 10:39:51;;;;;;;22.70;14.07;;;8.70;75.30;;;;;;8377289;28;20479;-73
2020/12/02 10:44:07;;;;;;;25.03;15.60;;;8.60;75.60;;;;;;8381174;28;20458;-73
2020/12/02 10:48:14;;;;;;;22.97;15.43;;;8.60;75.70;;;;;;8378045;28;20443;-73
2020/12/02 10:52:18;;;;;;;22.67;15.60;;;8.60;76.00;;;;;;8375582;28;20453;-73
2020/12/02 10:56:20;;;;;;;24.57;16.07;;;8.50;76.40;;;;;;8397839;28;20453;-73
2020/12/02 11:00:25;;;;;;;27.20;16.10;;;8.40;76.50;;;;;;8392287;28;20817;-73
2020/12/02 11:04:26;;;;;;;27.00;18.80;;;8.40;76.90;;;;;;8375992;28;20498;-73
2020/12/02 11:08:47;;;;;;;48.97;24.90;;;8.40;77.50;;;;;;8368766;28;20438;-73
2020/12/02 11:13:09;;;;;;;34.23;20.60;;;8.30;77.60;;;;;;8380444;28;20199;-72
2020/12/02 11:18:04;;;;;;;29.80;18.20;;;8.30;77.90;;;;;;8378368;28;20436;-72
2020/12/02 11:22:27;;;;;;;30.63;18.97;;;8.20;78.40;;;;;;8257255;28;20480;-73
2020/12/02 11:26:33;;;;;;;24.20;13.27;;;8.20;78.80;;;;;;8351969;28;20464;-73
2020/12/02 11:30:40;;;;;;;24.70;14.53;;;8.20;78.60;;;;;;8396772;28;20434;-73
2020/12/02 11:35:16;;;;;;;27.57;16.80;;;8.10;78.40;;;;;;8379103;28;20465;-76
2020/12/02 11:39:36;;;;;;;22.63;15.70;;;8.20;78.50;;;;;;8339490;28;20550;-77
2020/12/02 11:43:49;;;;;;;24.20;14.93;;;8.30;78.50;;;;;;8386084;28;20503;-76
2020/12/02 11:48:04;;;;;;;27.00;14.70;;;8.50;78.10;;;;;;8383618;28;20498;-76
2020/12/02 11:52:18;;;;;;;26.50;15.43;;;8.70;77.10;;;;;;8378906;28;20563;-76
2020/12/02 11:56:33;;;;;;;37.50;17.40;;;8.70;76.40;;;;;;8375743;28;20961;-77
2020/12/02 12:00:37;;;;;;;28.93;15.70;;;8.60;76.90;;;;;;8380832;28;20860;-77
2020/12/02 12:04:57;;;;;;;25.10;16.60;;;8.40;77.60;;;;;;8404799;28;20446;-77
2020/12/02 12:09:17;;;;;;;31.10;14.40;;;8.40;77.50;;;;;;8384420;28;20481;-77
2020/12/02 12:13:29;;;;;;;25.10;15.10;;;8.30;77.40;;;;;;8383797;28;20441;-77
2020/12/02 12:17:38;;;;;;;26.50;15.70;;;8.20;77.60;;;;;;8381095;28;20511;-77
2020/12/02 12:21:49;;;;;;;25.13;14.67;;;8.20;78.50;;;;;;8385847;28;20465;-77
2020/12/02 12:25:51;;;;;;;23.60;14.43;;;8.30;78.10;;;;;;8382736;28;20457;-77
2020/12/02 12:29:54;;;;;;;22.67;13.50;;;8.40;78.20;;;;;;8381008;28;20433;-77
2020/12/02 12:34:15;;;;;;;22.50;14.90;;;8.60;77.80;;;;;;8396389;28;20460;-77
2020/12/02 12:38:26;;;;;;;26.33;15.30;;;8.70;77.30;;;;;;8377182;28;20471;-77
2020/12/02 12:42:30;;;;;;;21.37;14.33;;;8.60;77.00;;;;;;8376047;28;20453;-77
2020/12/02 12:46:49;;;;;;;33.13;15.00;;;8.50;77.20;;;;;;8382937;28;20449;-77
2020/12/02 12:50:56;;;;;;;17.57;12.67;;;8.40;77.20;;;;;;8379558;28;20917;-77
2020/12/02 12:54:58;;;;;;;22.50;13.60;;;8.30;78.10;;;;;;8360279;28;20449;-76
2020/12/02 12:59:03;;;;;;;22.33;13.60;;;8.30;78.10;;;;;;8355757;28;20543;-77
2020/12/02 13:03:20;;;;;;;22.13;13.33;;;8.20;77.80;;;;;;8376806;28;20442;-76
2020/12/02 13:07:44;;;;;;;21.30;12.53;;;8.20;78.10;;;;;;8372211;28;20453;-77
2020/12/02 13:12:07;;;;;;;19.93;12.77;;;8.20;78.30;;;;;;8370734;28;20429;-77
2020/12/02 13:17:03;;;;;;;19.70;12.47;;;8.10;78.00;;;;;;8365137;28;20454;-76
2020/12/02 13:21:19;;;;;;;23.20;13.00;;;8.10;78.50;;;;;;8278797;28;20468;-76
2020/12/02 13:25:26;;;;;;;20.63;12.87;;;8.00;78.50;;;;;;8296407;28;20518;-76
2020/12/02 13:29:37;;;;;;;16.67;11.70;;;8.00;78.70;;;;;;8264367;28;20447;-76
2020/12/02 13:33:40;;;;;;;20.20;13.40;;;8.00;78.60;;;;;;8363757;28;20452;-77
2020/12/02 13:37:59;;;;;;;19.90;12.67;;;8.00;78.30;;;;;;8367702;28;20447;-76
2020/12/02 13:42:05;;;;;;;20.83;13.63;;;7.90;78.20;;;;;;8385032;28;20452;-77
2020/12/02 13:46:09;;;;;;;27.77;13.90;;;7.90;78.90;;;;;;8363472;28;20543;-76
2020/12/02 13:50:18;;;;;;;20.67;13.73;;;7.90;79.40;;;;;;8349513;28;21030;-75
2020/12/02 13:54:39;;;;;;;19.73;12.67;;;8.00;79.30;;;;;;8366743;28;20480;-76
2020/12/02 13:59:01;;;;;;;22.07;12.87;;;7.90;78.50;;;;;;8369967;28;20480;-76
2020/12/02 14:03:39;;;;;;;19.03;13.13;;;7.70;78.70;;;;;;8402543;28;20444;-75
2020/12/02 14:07:42;;;;;;;23.13;15.70;;;7.60;79.20;;;;;;8365383;28;20468;-75
2020/12/02 14:12:08;;;;;;;22.40;14.93;;;7.50;79.40;;;;;;8367575;28;20441;-77
2020/12/02 14:16:16;;;;;;;26.50;15.73;;;7.40;80.80;;;;;;8371284;28;20976;-76
2020/12/02 14:20:20;;;;;;;26.13;14.30;;;7.40;80.80;;;;;;8369384;28;20480;-77
2020/12/02 14:24:21;;;;;;;17.73;13.73;;;7.40;80.90;;;;;;8369047;28;20990;-76
2020/12/02 14:28:23;;;;;;;21.10;13.30;;;7.30;81.00;;;;;;8370094;28;20552;-76
2020/12/02 14:32:25;;;;;;;20.33;13.27;;;7.30;81.10;;;;;;8370548;28;20213;-77
2020/12/02 14:36:28;;;;;;;15.83;11.20;;;7.20;81.30;;;;;;8372396;28;20841;-76
2020/12/02 14:40:31;;;;;;;21.93;12.67;;;7.10;81.70;;;;;;8355610;28;20475;-77
2020/12/02 14:44:35;;;;;;;23.20;13.83;;;7.00;81.80;;;;;;8373915;28;21050;-77
2020/12/02 14:48:41;;;;;;;17.57;11.53;;;7.00;82.00;;;;;;8375317;28;21122;-77
2020/12/02 14:53:00;;;;;;;20.03;14.87;;;7.00;82.10;;;;;;8390922;28;20479;-78
2020/12/02 14:57:41;;;;;;;20.20;12.93;;;6.90;82.20;;;;;;8367033;28;20536;-77
2020/12/02 15:01:42;;;;;;;22.20;13.20;;;6.90;82.40;;;;;;8380451;28;20564;-76
2020/12/02 15:06:01;;;;;;;22.40;14.70;;;6.90;82.70;;;;;;8369226;28;20502;-77
2020/12/02 15:10:19;;;;;;;28.93;16.20;;;6.80;83.00;;;;;;8394425;28;20963;-75
2020/12/02 15:14:23;;;;;;;30.73;19.03;;;6.80;83.30;;;;;;8370518;28;20809;-75
2020/12/02 15:18:25;;;;;;;31.20;16.47;;;6.80;83.20;;;;;;8352923;28;20468;-76
2020/12/02 15:22:31;;;;;;;25.90;17.80;;;6.80;83.40;;;;;;8382030;28;20448;-76
2020/12/02 15:26:32;;;;;;;33.23;20.17;;;6.80;83.50;;;;;;8359211;28;20479;-76
2020/12/02 15:30:39;;;;;;;24.97;18.57;;;6.80;83.50;;;;;;8354330;28;21014;-75
2020/12/02 15:34:42;;;;;;;33.53;19.03;;;6.70;83.50;;;;;;8392265;28;20457;-76
2020/12/02 15:38:43;;;;;;;33.20;21.70;;;6.70;83.80;;;;;;8368598;28;20556;-76
2020/12/02 15:43:02;;;;;;;30.17;19.23;;;6.70;83.70;;;;;;8366719;28;20556;-76
2020/12/02 15:47:20;;;;;;;22.97;16.00;;;6.70;83.50;;;;;;8373181;28;20439;-76
2020/12/02 15:51:32;;;;;;;25.00;17.13;;;6.70;83.60;;;;;;8365026;28;20547;-76
2020/12/02 15:55:55;;;;;;;25.47;14.57;;;6.60;83.50;;;;;;8365226;28;20441;-76
2020/12/02 16:00:12;;;;;;;28.03;15.93;;;6.60;83.90;;;;;;8376455;28;21942;-76
2020/12/02 16:04:21;;;;;;;27.57;15.90;;;6.60;84.00;;;;;;8356024;28;20842;-76
2020/12/02 16:08:35;;;;;;;26.50;14.63;;;6.60;84.10;;;;;;8365835;28;20453;-76
2020/12/02 16:12:37;;;;;;;27.23;16.63;;;6.60;84.20;;;;;;8369417;28;20967;-76
2020/12/02 16:16:38;;;;;;;29.97;17.07;;;6.60;84.40;;;;;;8365604;28;20442;-76
2020/12/02 16:20:39;;;;;;;26.73;16.80;;;6.60;84.40;;;;;;8357395;28;20523;-76
2020/12/02 16:24:46;;;;;;;30.03;17.73;;;6.60;85.00;;;;;;8350990;28;21425;-76
2020/12/02 16:28:54;;;;;;;40.00;16.70;;;6.60;84.50;;;;;;8365879;28;20548;-76
2020/12/02 16:33:22;;;;;;;31.57;17.40;;;6.60;84.80;;;;;;8367291;28;20435;-76
2020/12/02 16:37:44;;;;;;;30.57;17.67;;;6.60;85.40;;;;;;8366637;28;20585;-76
2020/12/02 16:42:05;;;;;;;32.43;17.57;;;6.50;85.70;;;;;;8401363;28;20479;-76
2020/12/02 16:46:38;;;;;;;26.77;16.57;;;6.50;85.90;;;;;;8367799;28;20449;-76
2020/12/02 16:51:09;;;;;;;31.58;17.48;;;6.50;85.80;;;;;;8364866;28;20529;-76
2020/12/02 16:55:28;;;;;;;36.53;18.27;;;6.50;86.30;;;;;;8336027;28;20198;-76
2020/12/02 16:59:33;;;;;;;31.33;17.73;;;6.50;86.30;;;;;;8367725;28;20482;-75
2020/12/02 17:03:39;;;;;;;34.07;19.53;;;6.50;86.40;;;;;;8355603;28;20475;-76
2020/12/02 17:07:43;;;;;;;29.67;17.03;;;6.50;86.30;;;;;;8371822;28;20458;-76
2020/12/02 17:12:09;;;;;;;35.07;18.63;;;6.40;86.00;;;;;;8368609;28;20545;-77
2020/12/02 17:16:37;;;;;;;36.60;18.30;;;6.40;86.70;;;;;;8363515;28;20444;-77
2020/12/02 17:20:57;;;;;;;33.17;19.00;;;6.40;86.40;;;;;;8369163;28;20599;-77
2020/12/02 17:25:26;;;;;;;41.27;22.87;;;6.40;86.60;;;;;;8400233;28;20465;-77
2020/12/02 17:29:38;;;;;;;50.50;27.03;;;6.40;86.50;;;;;;8353086;28;20479;-77
2020/12/02 17:33:50;;;;;;;43.30;23.70;;;6.40;86.40;;;;;;8384734;28;20452;-77
2020/12/02 17:38:22;;;;;;;44.23;23.17;;;6.40;86.50;;;;;;8387032;28;20958;-77
2020/12/02 17:42:39;;;;;;;34.33;20.20;;;6.40;86.70;;;;;;8378382;28;21050;-77
2020/12/02 17:47:21;;;;;;;34.80;18.20;;;6.40;86.80;;;;;;8387476;28;20457;-77
2020/12/02 17:52:06;;;;;;;32.10;19.40;;;6.40;86.70;;;;;;8381008;28;20448;-77
2020/12/02 17:56:13;;;;;;;35.70;19.97;;;6.40;86.70;;;;;;8403076;28;20554;-77
2020/12/02 18:00:14;;;;;;;40.17;19.40;;;6.40;86.70;;;;;;8373922;28;21358;-77
2020/12/02 18:04:35;;;;;;;30.93;18.70;;;6.40;86.90;;;;;;8371955;28;20441;-76
2020/12/02 18:09:00;;;;;;;37.07;21.60;;;6.40;86.50;;;;;;8373460;28;20452;-77
2020/12/02 18:13:22;;;;;;;39.50;22.37;;;6.30;86.70;;;;;;8367327;28;20457;-76
2020/12/02 18:17:58;;;;;;;38.93;18.90;;;6.30;86.80;;;;;;8373189;28;20509;-76
2020/12/02 18:22:24;;;;;;;28.50;17.80;;;6.30;86.80;;;;;;8374209;28;20493;-78
2020/12/02 18:26:53;;;;;;;36.20;19.33;;;6.40;87.10;;;;;;8375117;28;20598;-76
2020/12/02 18:31:17;;;;;;;36.50;20.20;;;6.40;86.90;;;;;;8373887;28;20448;-77
2020/12/02 18:35:29;;;;;;;40.50;22.10;;;6.40;87.10;;;;;;8374570;28;20443;-77
2020/12/02 18:39:56;;;;;;;36.03;20.40;;;6.40;87.20;;;;;;8390451;28;21104;-76
2020/12/02 18:44:09;;;;;;;40.50;20.50;;;6.30;87.40;;;;;;8367689;28;20547;-77
2020/12/02 18:48:32;;;;;;;61.50;33.37;;;6.30;87.80;;;;;;8373527;28;20440;-77
2020/12/02 18:52:34;;;;;;;72.90;34.20;;;6.30;87.90;;;;;;8377716;28;20443;-76
2020/12/02 18:56:56;;;;;;;62.43;31.57;;;6.30;88.10;;;;;;8371931;28;20498;-78
2020/12/02 19:00:57;;;;;;;87.30;38.33;;;6.30;88.10;;;;;;8372651;28;20485;-77
2020/12/02 19:05:22;;;;;;;89.53;40.67;;;6.30;88.20;;;;;;8337300;28;20582;-75
2020/12/02 19:09:33;;;;;;;54.90;30.73;;;6.30;88.30;;;;;;8393349;28;20478;-78
2020/12/02 19:14:12;;;;;;;56.37;30.87;;;6.30;88.40;;;;;;8392415;28;21424;-78
2020/12/02 19:18:38;;;;;;;50.33;27.70;;;6.30;88.40;;;;;;8369052;28;20804;-77
2020/12/02 19:22:58;;;;;;;49.80;28.20;;;6.30;88.40;;;;;;8374506;28;20606;-77
2020/12/02 19:27:33;;;;;;;66.73;39.57;;;6.30;89.10;;;;;;8386140;28;20529;-78
2020/12/02 19:31:53;;;;;;;45.17;26.47;;;6.30;88.70;;;;;;8365114;28;20448;-76
2020/12/02 19:36:18;;;;;;;46.50;27.20;;;6.30;89.00;;;;;;8368685;28;20439;-76
2020/12/02 19:40:49;;;;;;;45.33;25.67;;;6.40;89.00;;;;;;8361875;28;20473;-78
2020/12/02 19:45:09;;;;;;;45.30;25.90;;;6.40;88.70;;;;;;8370763;28;20453;-77
2020/12/02 19:49:16;;;;;;;37.80;21.80;;;6.50;88.80;;;;;;8358054;28;20551;-78
2020/12/02 19:53:35;;;;;;;34.70;19.40;;;6.50;88.60;;;;;;8368798;28;20444;-77
2020/12/02 19:58:08;;;;;;;37.03;21.90;;;6.50;88.40;;;;;;8374168;28;20458;-78
2020/12/02 20:02:35;;;;;;;33.87;18.07;;;6.50;88.10;;;;;;8371438;28;20957;-77
2020/12/02 20:06:48;;;;;;;25.60;15.13;;;6.50;88.10;;;;;;8369265;28;20444;-77
2020/12/02 20:10:59;;;;;;;25.27;15.43;;;6.60;88.10;;;;;;8388016;28;20467;-77
2020/12/02 20:15:36;;;;;;;28.30;16.30;;;6.60;87.90;;;;;;8371703;28;20459;-78
2020/12/02 20:20:31;;;;;;;27.53;17.43;;;6.60;87.80;;;;;;8373376;28;20536;-77
2020/12/02 20:24:59;;;;;;;22.97;14.13;;;6.60;87.70;;;;;;8340308;28;20464;-78
2020/12/02 20:29:15;;;;;;;22.90;14.30;;;6.60;87.40;;;;;;8385597;28;20463;-77
2020/12/02 20:33:25;;;;;;;27.40;15.97;;;6.70;87.30;;;;;;8353297;28;20533;-78
2020/12/02 20:37:35;;;;;;;23.47;14.03;;;6.70;87.00;;;;;;8382692;28;20464;-77
2020/12/02 20:41:39;;;;;;;26.13;14.57;;;6.70;86.90;;;;;;8384484;28;20569;-77
2020/12/02 20:45:42;;;;;;;21.30;14.03;;;6.70;86.90;;;;;;8350156;28;20488;-78
2020/12/02 20:50:19;;;;;;;24.70;15.90;;;6.70;86.60;;;;;;8357978;28;20546;-77
2020/12/02 20:54:23;;;;;;;29.60;16.30;;;6.80;86.40;;;;;;8369383;28;20583;-77
2020/12/02 20:58:47;;;;;;;29.03;17.43;;;6.80;86.40;;;;;;8374371;28;20503;-77
2020/12/02 21:02:53;;;;;;;28.37;16.30;;;6.80;86.40;;;;;;8396059;28;20440;-77
2020/12/02 21:06:59;;;;;;;25.30;14.57;;;6.80;86.20;;;;;;8379441;28;20448;-77
2020/12/02 21:11:00;;;;;;;25.20;14.63;;;6.80;86.20;;;;;;8412857;28;20455;-77
2020/12/02 21:15:01;;;;;;;22.13;15.87;;;6.80;86.20;;;;;;8390188;28;20448;-76
2020/12/02 21:19:22;;;;;;;22.77;14.43;;;6.80;86.20;;;;;;8369139;28;20494;-76
2020/12/02 21:23:34;;;;;;;27.47;15.57;;;6.80;86.10;;;;;;8378204;28;20186;-76
2020/12/02 21:27:55;;;;;;;23.80;15.27;;;6.80;86.00;;;;;;8373633;28;20489;-75
2020/12/02 21:32:28;;;;;;;35.27;18.53;;;6.80;85.80;;;;;;8391754;28;20494;-76